Terminal Aerodrome Forecast
Issued by NWS

Home | Current Version | Previous Version | Text Only | Print | Product List | Glossary On
Versions: 1 2 3 4 5 6 7 8 9 10 11 12 13 14 15 16 17 18 19 20 21 22 23 24 25 26 27 28
000
FTUS46 KEKA 301920 AAA
TAFCEC
TAF AMD
KCEC 301920Z 3019/3118 22006KT P6SM BKN012
     FM302300 24008KT P6SM SCT015 BKN250
     FM310100 19010KT P6SM -DZ FEW025 OVC050
     FM310800 24004KT P6SM -DZ OVC015
     FM311600 31005KT P6SM FEW015 BKN050=

USA.gov is the U.S. government's official web portal to all federal, state and local government web resources and services.